Time;durP1;ratioP1;P1;durP2;ratioP2;P2;SDS_P1;SDS_P2;PMS_P1;PMS_P2;Temp;Humidity;BMP_temperature;BMP_pressure;BME280_temperature;BME280_humidity;BME280_pressure;Samples;Min_cycle;Max_cycle;Signal;HPM_P1;HPM_P2
2023/08/25 05:18:04;;;;;;;28.75;7.18;;;;;;;15.30;66.18;99605.56;3353965;23;20035;-90
2023/08/25 05:20:32;;;;;;;23.73;7.13;;;;;;;14.99;65.58;99552.53;4891905;29;20092;-94
2023/08/25 06:15:59;;;;;;;22.40;5.03;;;;;;;16.29;56.59;99585.38;6007943;23;20086;-96
2023/08/25 06:36:37;;;;;;;7.68;3.38;;;;;;;16.37;48.97;99549.41;5007503;23;20090;-95
2023/08/25 06:40:15;;;;;;;12.77;3.78;;;;;;;16.81;49.97;99620.59;4958140;28;20038;-95
2023/08/25 06:43:33;;;;;;;12.65;3.53;;;;;;;16.81;52.39;99590.22;5284399;23;20111;-95
2023/08/25 06:46:33;;;;;;;17.08;3.45;;;;;;;16.59;51.95;99545.38;4931248;29;20048;-94
2023/08/25 06:49:02;;;;;;;16.10;3.80;;;;;;;16.70;50.90;99545.69;4926910;29;20034;-94
2023/08/25 07:03:27;;;;;;;16.42;4.05;;;;;;;16.85;48.04;99546.94;4944288;29;20051;-95
2023/08/25 07:06:01;;;;;;;7.18;3.90;;;;;;;17.12;47.84;99579.34;4914610;29;20044;-96
2023/08/25 07:12:11;;;;;;;26.10;5.10;;;;;;;17.68;49.03;99602.56;4902905;29;20186;-91
2023/08/25 07:14:39;;;;;;;16.40;4.20;;;;;;;17.85;50.85;99610.59;4874937;29;20082;-92
2023/08/25 07:17:13;;;;;;;15.82;4.97;;;;;;;17.88;52.11;99593.28;4908816;29;20052;-94
2023/08/25 07:19:52;;;;;;;17.52;5.45;;;;;;;17.90;49.11;99604.00;4902010;29;20051;-95
2023/08/25 07:22:20;;;;;;;17.85;5.50;;;;;;;17.76;49.68;99585.03;4865363;29;20056;-94
2023/08/25 07:24:55;;;;;;;13.60;4.88;;;;;;;17.67;49.86;99565.03;4870557;29;20037;-96
2023/08/25 07:27:26;;;;;;;13.93;5.45;;;;;;;17.74;49.52;99566.00;4880157;29;20057;-96
2023/08/25 07:29:53;;;;;;;13.43;5.00;;;;;;;17.79;50.40;99556.72;4875860;29;20057;-96
2023/08/25 07:32:25;;;;;;;9.68;5.35;;;;;;;17.88;48.00;99587.75;4880257;29;20045;-96
2023/08/25 07:34:56;;;;;;;17.10;4.75;;;;;;;18.12;48.54;99594.28;4880302;29;20057;-96
2023/08/25 07:37:25;;;;;;;19.30;4.60;;;;;;;17.92;47.70;99561.00;4865279;29;20041;-96
2023/08/25 07:39:54;;;;;;;16.92;4.70;;;;;;;18.31;47.65;99603.47;4860667;29;20049;-96
2023/08/25 07:42:22;;;;;;;7.10;3.63;;;;;;;18.04;43.95;99562.84;4887515;29;20040;-95
2023/08/25 07:44:49;;;;;;;15.25;4.32;;;;;;;17.98;46.93;99570.63;4868252;29;20045;-96
2023/08/25 07:47:25;;;;;;;18.95;3.97;;;;;;;18.06;46.29;99566.88;4875799;29;20073;-96
2023/08/25 07:49:52;;;;;;;20.65;5.15;;;;;;;18.42;46.52;99595.44;4892686;29;20053;-96
2023/08/25 07:52:19;;;;;;;15.02;3.60;;;;;;;18.29;46.04;99569.81;4879795;29;20028;-95
2023/08/25 07:54:58;;;;;;;16.48;3.22;;;;;;;18.41;44.92;99588.31;4878258;29;20068;-96
2023/08/25 07:57:28;;;;;;;10.70;4.18;;;;;;;18.68;45.14;99630.06;4899187;29;20047;-96
2023/08/25 08:00:00;;;;;;;14.70;3.55;;;;;;;18.48;43.78;99618.91;4931680;29;20052;-96
2023/08/25 08:02:26;;;;;;;12.57;3.50;;;;;;;18.28;42.73;99600.63;4917719;29;20101;-95
2023/08/25 08:04:52;;;;;;;15.20;3.17;;;;;;;17.73;43.08;99588.50;4910933;29;20077;-96
2023/08/25 08:07:18;;;;;;;13.17;3.70;;;;;;;17.69;42.69;99601.44;4918014;29;20284;-96
2023/08/25 08:09:48;;;;;;;26.30;4.13;;;;;;;17.52;44.06;99567.41;4907148;29;20059;-95
2023/08/25 08:12:16;;;;;;;33.92;4.97;;;;;;;17.61;43.30;99575.53;4925519;29;20862;-94
2023/08/25 08:14:42;;;;;;;20.75;3.70;;;;;;;17.65;43.70;99567.34;4923561;29;20075;-95
2023/08/25 08:17:09;;;;;;;17.80;3.65;;;;;;;18.03;43.34;99613.81;4911888;29;20044;-94
2023/08/25 08:19:35;;;;;;;19.03;4.53;;;;;;;18.07;44.01;99601.69;4906409;29;20536;-95
2023/08/25 08:22:03;;;;;;;17.00;3.27;;;;;;;17.91;42.75;99564.91;4927145;29;20122;-95
2023/08/25 08:24:29;;;;;;;9.20;2.90;;;;;;;18.24;41.82;99608.03;4923157;29;20055;-95
2023/08/25 08:26:56;;;;;;;15.67;3.30;;;;;;;18.12;41.28;99583.22;4937245;29;20028;-94
2023/08/25 08:29:22;;;;;;;4.85;2.70;;;;;;;18.00;40.10;99551.69;4911259;29;20469;-96
2023/08/25 08:31:48;;;;;;;9.67;2.97;;;;;;;18.10;39.76;99560.63;4915562;29;20068;-94
2023/08/25 08:34:16;;;;;;;5.93;2.70;;;;;;;18.49;40.77;99623.28;4927922;29;20054;-94
2023/08/25 08:36:42;;;;;;;14.90;3.10;;;;;;;18.40;39.61;99605.25;4911937;29;20035;-96
2023/08/25 08:39:15;;;;;;;8.47;2.97;;;;;;;18.22;39.48;99555.00;4914498;29;20043;-96
2023/08/25 08:41:41;;;;;;;4.15;2.45;;;;;;;18.38;42.26;99555.81;4913314;29;20047;-95
2023/08/25 08:44:18;;;;;;;;;;;;;;;18.97;41.26;99626.81;4932686;29;20050;-96
2023/08/25 08:46:49;;;;;;;9.13;2.67;;;;;;;18.74;41.45;99556.63;4925099;29;19930;-95
2023/08/25 08:49:17;;;;;;;7.38;3.13;;;;;;;18.94;41.25;99585.97;4877132;29;20502;-95
2023/08/25 08:51:47;;;;;;;6.93;3.13;;;;;;;19.16;41.38;99601.09;4907612;28;20076;-96
2023/08/25 08:54:15;;;;;;;6.25;3.25;;;;;;;19.04;42.70;99558.84;4940882;29;20031;-94
2023/08/25 08:56:41;;;;;;;6.75;2.72;;;;;;;19.35;40.56;99591.19;4909043;29;20059;-94
2023/08/25 08:59:09;;;;;;;4.43;2.70;;;;;;;19.40;40.94;99583.38;4896520;29;20044;-95
2023/08/25 09:01:35;;;;;;;;;;;;;;;;;;4914303;29;20036;-94
2023/08/25 09:04:03;;;;;;;21.27;4.15;;;;;;;19.05;39.22;99579.88;4919307;29;19950;-96
2023/08/25 09:06:36;;;;;;;12.23;3.47;;;;;;;18.82;39.80;99561.16;4915829;29;20043;-94
2023/08/25 09:09:06;;;;;;;12.73;3.25;;;;;;;18.77;38.98;99572.53;4930570;29;20111;-93
2023/08/25 09:11:36;;;;;;;7.40;2.60;;;;;;;18.80;37.90;99593.97;4930054;29;20102;-93
2023/08/25 09:14:05;;;;;;;8.88;2.95;;;;;;;19.00;39.12;99612.22;4929653;29;20034;-94
2023/08/25 09:16:36;;;;;;;9.15;2.72;;;;;;;19.10;38.01;99602.53;4949094;29;20051;-93
2023/08/25 09:19:03;;;;;;;7.75;2.40;;;;;;;19.04;35.28;99581.84;4930172;29;20044;-95
2023/08/25 09:21:39;;;;;;;7.07;2.60;;;;;;;19.18;37.85;99570.25;4927675;29;20390;-95
2023/08/25 09:24:09;;;;;;;5.88;2.38;;;;;;;19.68;37.73;99604.53;4894181;29;20044;-92
2023/08/25 09:26:39;;;;;;;4.55;2.40;;;;;;;19.87;38.19;99615.59;4880676;29;20044;-94
2023/08/25 09:29:05;;;;;;;14.05;3.78;;;;;;;19.98;38.54;99595.56;4907422;29;20044;-95
2023/08/25 09:31:34;;;;;;;6.32;3.42;;;;;;;19.98;39.94;99568.63;4916178;29;20075;-95
2023/08/25 09:34:09;;;;;;;8.82;3.05;;;;;;;20.06;38.25;99553.69;4917953;29;20043;-92
2023/08/25 09:36:57;;;;;;;10.43;3.45;;;;;;;20.31;37.70;99567.97;4933291;29;20055;-95
2023/08/25 09:39:26;;;;;;;8.93;3.25;;;;;;;20.37;37.17;99560.94;4917155;29;20052;-93
2023/08/25 09:41:54;;;;;;;9.18;3.42;;;;;;;20.40;36.40;99567.72;4913852;29;20059;-94
2023/08/25 09:47:34;;;;;;;6.15;3.22;;;;;;;20.17;37.85;99542.78;4863476;29;20049;-94
2023/08/25 09:50:01;;;;;;;13.32;3.47;;;;;;;20.13;38.94;99550.22;4841264;29;20058;-94
2023/08/25 09:52:43;;;;;;;8.63;3.10;;;;;;;20.30;41.43;99585.03;4877750;29;20057;-96
2023/08/25 09:55:11;;;;;;;5.15;3.00;;;;;;;19.81;37.73;99542.16;4823473;29;20069;-94
2023/08/25 09:57:38;;;;;;;9.75;3.42;;;;;;;20.01;38.17;99606.72;4855919;29;20056;-94
2023/08/25 10:00:08;;;;;;;13.88;3.65;;;;;;;19.60;40.03;99586.94;4845956;29;20065;-92
2023/08/25 10:02:42;;;;;;;14.52;4.10;;;;;;;19.47;39.15;99608.47;4860544;29;20159;-94
2023/08/25 10:05:12;;;;;;;13.73;3.25;;;;;;;19.00;38.35;99559.56;4841500;29;20065;-94
2023/08/25 10:07:42;;;;;;;13.70;5.18;;;;;;;19.07;38.61;99566.44;4855488;29;20028;-92
2023/08/25 10:10:13;;;;;;;14.13;4.03;;;;;;;19.56;39.87;99616.53;4854105;29;20061;-96
2023/08/25 10:12:44;;;;;;;16.38;3.22;;;;;;;19.78;38.09;99606.72;4842283;29;20030;-96
2023/08/25 10:15:20;;;;;;;6.93;2.08;;;;;;;19.65;33.35;99560.88;4877052;29;20089;-94
2023/08/25 10:17:48;;;;;;;11.63;2.72;;;;;;;19.78;34.74;99575.41;4862140;29;20073;-92
2023/08/25 10:20:15;;;;;;;10.93;2.90;;;;;;;19.54;36.13;99543.22;4866383;29;20061;-93
2023/08/25 10:22:46;;;;;;;7.75;3.13;;;;;;;19.76;34.81;99570.19;4834423;29;20045;-93
2023/08/25 10:25:13;;;;;;;13.20;3.38;;;;;;;19.59;34.79;99542.91;4864978;29;20040;-94
2023/08/25 10:27:49;;;;;;;11.63;3.33;;;;;;;19.81;35.51;99574.66;4912087;29;20057;-93
2023/08/25 10:30:26;;;;;;;6.95;3.40;;;;;;;19.80;34.08;99578.59;4902902;29;20033;-94
2023/08/25 10:33:08;;;;;;;11.85;2.85;;;;;;;19.71;36.11;99570.53;4915815;29;20025;-96
2023/08/25 10:36:06;;;;;;;5.03;3.13;;;;;;;19.96;36.11;99598.69;4915896;29;20155;-95
2023/08/25 10:38:59;;;;;;;13.20;3.50;;;;;;;19.93;36.39;99586.38;4887432;29;20057;-95
2023/08/25 10:42:12;;;;;;;9.23;3.80;;;;;;;19.77;36.41;99552.41;4888707;29;20053;-95
2023/08/25 10:44:43;;;;;;;7.85;3.10;;;;;;;19.91;38.63;99560.97;4882291;29;20029;-94
2023/08/25 10:47:23;;;;;;;14.80;3.10;;;;;;;19.90;35.19;99595.44;4892890;29;20048;-95
2023/08/25 10:49:55;;;;;;;8.82;3.40;;;;;;;19.84;36.88;99576.69;4903860;29;20053;-95
2023/08/25 10:52:28;;;;;;;9.85;3.47;;;;;;;19.58;36.20;99533.81;4904708;29;20063;-94
2023/08/25 10:54:57;;;;;;;8.20;3.15;;;;;;;20.05;37.86;99567.94;4894831;29;20040;-95
2023/08/25 10:57:50;;;;;;;8.82;3.20;;;;;;;20.52;36.81;99591.72;4897567;29;20139;-94
2023/08/25 11:00:33;;;;;;;5.30;2.70;;;;;;;20.34;38.80;99539.47;4899351;29;20051;-95
2023/08/25 11:03:44;;;;;;;7.90;3.15;;;;;;;20.91;37.06;99595.09;4898701;29;20133;-96
2023/08/25 11:12:26;;;;;;;7.32;3.47;;;;;;;21.13;37.32;99532.25;4985217;23;20059;-94
2023/08/25 11:15:43;;;;;;;8.32;3.15;;;;;;;21.55;36.55;99593.13;4945724;23;20055;-94
2023/08/25 11:19:13;;;;;;;9.02;3.47;;;;;;;21.48;36.87;99587.50;4940516;29;20075;-96
2023/08/25 11:21:39;;;;;;;11.75;4.32;;;;;;;20.89;35.91;99522.41;5071321;23;20036;-95
2023/08/25 11:27:28;;;;;;;6.50;3.53;;;;;;;21.16;36.92;99547.34;4994162;23;20083;-94
2023/08/25 11:30:39;;;;;;;11.52;3.75;;;;;;;21.15;36.20;99554.09;4910643;29;20035;-95
2023/08/25 11:33:10;;;;;;;10.50;3.70;;;;;;;21.13;35.47;99550.91;4889273;29;20044;-94
2023/08/25 11:35:40;;;;;;;10.70;3.30;;;;;;;20.90;37.21;99531.56;4856248;29;20596;-95
2023/08/25 11:38:35;;;;;;;12.80;4.35;;;;;;;21.46;38.38;99581.53;4857572;29;20040;-94
2023/08/25 11:41:04;;;;;;;8.45;3.72;;;;;;;21.44;37.52;99577.53;4875597;23;20052;-95
2023/08/25 11:43:36;;;;;;;35.00;6.65;;;;;;;21.44;36.75;99544.94;4889105;29;20049;-94
2023/08/25 11:46:32;;;;;;;11.80;4.45;;;;;;;21.65;33.70;99574.16;4904507;23;20066;-94
2023/08/25 11:49:30;;;;;;;12.18;3.80;;;;;;;21.74;35.14;99572.69;4959977;23;20043;31
2023/08/25 11:56:04;;;;;;;48.95;13.73;;;;;;;21.44;34.34;99574.75;4937015;29;20082;-96
2023/08/25 12:04:53;;;;;;;19.38;4.07;;;;;;;21.61;35.98;99535.19;4937246;29;20086;-94
2023/08/25 12:07:43;;;;;;;15.82;3.97;;;;;;;21.75;34.91;99526.16;4957446;23;20040;-95
2023/08/25 12:10:09;;;;;;;12.15;3.70;;;;;;;21.78;36.35;99531.75;4961071;23;20580;-94
2023/08/25 12:12:37;;;;;;;15.85;4.05;;;;;;;21.56;34.88;99502.94;4950089;28;20429;-94
2023/08/25 12:18:52;;;;;;;19.93;4.47;;;;;;;21.73;35.49;99537.69;5007769;23;20062;-93
2023/08/25 12:21:50;;;;;;;9.00;3.72;;;;;;;21.78;35.79;99564.38;4948030;28;20047;-94
2023/08/25 12:24:18;;;;;;;22.05;4.85;;;;;;;21.36;39.12;99496.00;4913298;29;20134;-94
2023/08/25 12:26:47;;;;;;;10.70;4.07;;;;;;;21.43;35.03;99521.09;4900074;29;20075;-95
2023/08/25 12:29:15;;;;;;;13.52;4.43;;;;;;;21.49;37.05;99522.38;5038205;23;20049;-94
2023/08/25 12:31:43;;;;;;;24.38;6.40;;;;;;;21.56;36.93;99527.19;4958759;23;20054;-94
2023/08/25 12:34:22;;;;;;;15.10;4.13;;;;;;;21.66;36.10;99565.44;5414833;23;20888;31
2023/08/25 12:36:49;;;;;;;14.07;4.30;;;;;;;21.38;36.47;99542.88;5147406;23;20058;-96
2023/08/25 12:39:46;;;;;;;7.85;3.60;;;;;;;21.36;35.73;99565.53;4960822;23;20054;-95
2023/08/25 12:42:12;;;;;;;12.73;3.90;;;;;;;21.17;37.33;99544.22;4962671;23;20054;-96
2023/08/25 12:48:33;;;;;;;13.85;3.85;;;;;;;21.04;37.27;99546.44;5006180;23;20058;-95
2023/08/25 12:51:19;;;;;;;10.38;3.80;;;;;;;21.16;38.56;99539.84;4973783;28;20137;-93
2023/08/25 12:54:40;;;;;;;20.52;4.78;;;;;;;21.47;38.68;99571.19;4968031;23;20058;-95
2023/08/25 12:58:15;;;;;;;8.65;4.20;;;;;;;21.35;36.22;99575.03;2781266;23;20297;-95
2023/08/25 13:00:43;;;;;;;15.20;4.10;;;;;;;20.94;37.40;99529.63;4936922;28;20150;-95
2023/08/25 13:06:33;;;;;;;11.80;4.03;;;;;;;21.32;37.59;99570.19;4964492;28;20093;-93
2023/08/25 13:09:00;;;;;;;;;;;;;;;21.20;35.94;99578.78;4976777;28;20092;-93
2023/08/25 13:11:27;;;;;;;18.25;4.10;;;;;;;21.02;36.12;99554.34;4966575;23;19925;-94
2023/08/25 13:17:28;;;;;;;8.10;4.10;;;;;;;21.04;35.81;99579.00;4996640;28;20043;-95
2023/08/25 13:20:00;;;;;;;15.52;3.83;;;;;;;20.63;37.22;99526.84;4927751;28;20056;-94
2023/08/25 13:23:35;;;;;;;13.60;4.18;;;;;;;20.92;34.69;99571.66;4915843;29;20047;-93
2023/08/25 13:40:54;;;;;;;9.68;4.10;;;;;;;21.71;33.15;99561.50;4946110;29;20059;-95
2023/08/25 13:47:19;;;;;;;9.95;4.50;;;;;;;21.77;34.46;99537.72;4975856;28;20085;-95
2023/08/25 13:54:02;;;;;;;10.50;4.18;;;;;;;21.98;33.01;99549.03;5071760;23;20042;-96
2023/08/25 14:25:24;;;;;;;28.67;7.25;;;;;;;21.76;33.88;99584.25;5017722;23;20273;-90
2023/08/25 14:28:06;;;;;;;29.02;7.85;;;;;;;21.50;34.13;99557.34;4959639;28;20038;-92
2023/08/25 14:30:40;;;;;;;107.03;11.80;;;;;;;21.31;33.87;99571.38;4925392;28;20062;-92
2023/08/25 14:33:35;;;;;;;55.70;8.77;;;;;;;21.26;36.19;99585.63;4962152;28;20045;-92
2023/08/25 14:36:04;;;;;;;91.22;35.17;;;;;;;20.97;35.01;99571.34;4992954;28;20038;-90
2023/08/25 14:38:30;;;;;;;26.58;6.65;;;;;;;21.03;34.84;99574.63;4981152;28;20046;-93
2023/08/25 14:45:29;;;;;;;155.00;60.30;;;;;;;21.13;37.15;99589.84;4921394;29;20046;-92
2023/08/25 14:47:55;;;;;;;123.22;52.63;;;;;;;21.19;38.90;99591.91;4903341;29;20047;-92
2023/08/25 14:53:50;;;;;;;173.13;83.03;;;;;;;21.14;38.72;99592.22;4898970;29;21483;-93
2023/08/25 14:56:56;;;;;;;60.70;28.02;;;;;;;21.19;38.07;99597.47;4971086;23;20124;31
2023/08/25 15:02:40;;;;;;;32.50;12.23;;;;;;;20.79;39.37;99525.84;5103922;23;20042;-94
2023/08/25 15:05:25;;;;;;;39.25;19.30;;;;;;;20.75;38.14;99538.88;4971845;28;20142;-94
2023/08/25 15:07:52;;;;;;;164.52;94.50;;;;;;;20.95;41.11;99554.25;4970727;28;20134;-92
2023/08/25 15:10:21;;;;;;;77.25;38.25;;;;;;;20.90;42.63;99545.47;4977173;28;20042;-92
2023/08/25 15:12:49;;;;;;;20.85;11.35;;;;;;;21.26;40.62;99592.00;4964500;28;20552;-93
2023/08/25 15:15:19;;;;;;;27.90;8.82;;;;;;;21.13;40.33;99573.94;4975019;28;20034;-93
2023/08/25 15:17:45;;;;;;;21.27;11.35;;;;;;;21.06;40.27;99548.84;4978387;28;20053;-94
2023/08/25 15:20:13;;;;;;;37.58;22.02;;;;;;;21.03;39.62;99557.94;4979335;28;20069;-90
2023/08/25 15:22:39;;;;;;;25.75;12.35;;;;;;;21.24;40.65;99587.97;4991543;28;20089;-91
2023/08/25 15:25:07;;;;;;;53.30;28.95;;;;;;;21.07;42.13;99562.34;5021030;23;20058;-91
2023/08/25 15:27:36;;;;;;;31.27;17.45;;;;;;;21.19;44.28;99585.53;4956480;28;20041;-91
2023/08/25 15:30:04;;;;;;;30.77;17.67;;;;;;;21.11;42.78;99592.97;4970072;28;20023;-93
2023/08/25 15:32:32;;;;;;;33.95;13.00;;;;;;;20.73;41.16;99555.13;5000837;28;20048;-92
2023/08/25 15:34:58;;;;;;;21.80;12.80;;;;;;;20.75;42.40;99567.47;4983749;28;20061;-91
2023/08/25 15:37:25;;;;;;;18.60;9.60;;;;;;;20.72;44.56;99572.97;4966391;28;20022;-92
2023/08/25 15:39:52;;;;;;;22.15;8.38;;;;;;;20.59;44.33;99564.06;4975520;28;20018;-91
2023/08/25 15:42:18;;;;;;;14.80;6.75;;;;;;;20.62;44.97;99586.31;4984687;28;20039;-90
2023/08/25 15:44:45;;;;;;;11.93;6.15;;;;;;;20.46;45.72;99568.19;5007670;28;20046;-91
2023/08/25 15:47:11;;;;;;;13.65;6.03;;;;;;;20.11;47.32;99538.72;4989589;28;20049;-92
2023/08/25 15:49:39;;;;;;;15.85;6.13;;;;;;;20.12;46.35;99554.19;4987701;28;20041;-95
2023/08/25 15:52:09;;;;;;;14.70;6.05;;;;;;;19.89;46.76;99527.22;4954297;28;20038;-94
2023/08/25 15:54:37;;;;;;;16.05;6.90;;;;;;;20.07;47.44;99571.16;5018634;23;20051;-93
2023/08/25 15:57:39;;;;;;;14.00;6.20;;;;;;;20.13;47.94;99587.13;4958770;28;20038;-92
2023/08/25 16:00:32;;;;;;;23.13;6.68;;;;;;;19.60;49.13;99519.56;4950887;29;20150;-93
2023/08/25 16:02:58;;;;;;;18.17;6.25;;;;;;;19.82;48.78;99574.28;4946229;29;20020;-93
2023/08/25 16:05:26;;;;;;;22.15;7.32;;;;;;;19.45;49.28;99519.28;4964608;29;20039;-90
2023/08/25 16:08:19;;;;;;;32.38;16.85;;;;;;;19.40;47.70;99516.84;4934035;29;20132;-93
2023/08/25 16:11:09;;;;;;;42.63;22.45;;;;;;;19.66;47.28;99595.75;4949501;28;20051;-94
2023/08/25 16:14:22;;;;;;;42.13;18.55;;;;;;;19.17;47.81;99536.19;4879188;29;20042;-92
2023/08/25 16:16:54;;;;;;;36.15;16.77;;;;;;;19.15;48.11;99554.34;4813200;29;20053;-91
2023/08/25 16:19:28;;;;;;;25.90;11.32;;;;;;;19.35;47.31;99591.19;5138747;23;20026;-92
2023/08/25 16:25:22;;;;;;;21.83;10.35;;;;;;;19.12;49.57;99597.44;4950393;28;20059;-91
2023/08/25 16:27:54;;;;;;;31.05;12.07;;;;;;;18.53;51.86;99523.69;4932580;29;20055;-90
2023/08/25 16:30:43;;;;;;;35.97;12.10;;;;;;;18.89;50.81;99602.06;4899303;28;20020;-90
2023/08/25 16:33:09;;;;;;;149.70;35.17;;;;;;;18.49;51.12;99556.03;4937577;29;20044;-92
2023/08/25 16:35:49;;;;;;;131.18;32.60;;;;;;;18.53;52.88;99579.88;4921062;29;20116;-92
2023/08/25 16:38:58;;;;;;;72.85;16.70;;;;;;;18.11;54.29;99532.59;4949350;29;20110;-90
2023/08/25 16:41:58;;;;;;;61.75;14.00;;;;;;;18.43;55.81;99604.53;4873656;23;20054;-91
2023/08/25 16:44:46;;;;;;;29.65;13.50;;;;;;;17.91;55.93;99550.28;4955961;28;20118;-91
2023/08/25 16:47:19;;;;;;;37.28;16.90;;;;;;;18.03;58.40;99600.78;4989983;28;20027;-92
2023/08/25 16:49:51;;;;;;;36.55;16.02;;;;;;;17.89;58.03;99594.91;4941475;28;20046;-89
2023/08/25 16:52:20;;;;;;;61.78;26.38;;;;;;;17.82;56.26;99601.03;4969215;28;20034;-93
2023/08/25 16:58:52;;;;;;;65.45;30.40;;;;;;;17.88;56.81;99625.66;4987821;28;20042;-94
2023/08/25 17:01:32;;;;;;;81.32;28.77;;;;;;;17.79;57.75;99626.63;4963078;28;20053;-94
2023/08/25 17:04:04;;;;;;;66.25;24.25;;;;;;;17.45;60.18;99596.81;4978928;28;20053;-94
2023/08/25 17:06:40;;;;;;;115.70;38.42;;;;;;;17.58;59.13;99635.13;4965819;28;21331;-94
2023/08/25 17:12:41;;;;;;;113.35;38.42;;;;;;;16.89;58.10;99550.63;4975388;28;20055;-95
2023/08/25 17:15:43;;;;;;;;;;;;;;;;;;;;;
2023/08/25 17:18:42;;;;;;;64.65;23.75;;;;;;;17.20;60.87;99616.25;4993665;28;20047;-95
2023/08/25 17:21:20;;;;;;;68.78;23.73;;;;;;;17.14;61.20;99612.91;4985294;28;20039;-94
2023/08/25 17:23:58;;;;;;;60.17;23.45;;;;;;;17.20;63.05;99637.56;4960639;28;20073;-94
2023/08/25 17:26:25;;;;;;;58.33;22.88;;;;;;;16.82;63.48;99602.84;4950418;28;20101;-93
2023/08/25 17:29:12;;;;;;;49.92;21.65;;;;;;;16.73;64.19;99605.75;4981329;28;20102;-95
2023/08/25 17:32:12;;;;;;;;;;;;;;;16.97;62.01;99648.31;4989187;28;20046;-92
2023/08/25 17:34:55;;;;;;;42.53;16.98;;;;;;;16.84;63.46;99639.22;4972752;28;20023;-92
2023/08/25 17:43:13;;;;;;;51.05;18.17;;;;;;;16.37;66.47;99614.84;4977846;28;20078;-92
2023/08/25 17:45:41;;;;;;;45.40;19.10;;;;;;;16.10;65.71;99584.00;4950857;29;20184;-93
2023/08/25 17:48:26;;;;;;;51.63;21.83;;;;;;;16.34;65.59;99630.13;4962611;29;20139;-93
2023/08/25 17:57:23;;;;;;;75.23;29.47;;;;;;;16.19;66.25;99622.50;5539059;23;20258;-93
2023/08/25 18:05:52;;;;;;;70.45;29.38;;;;;;;15.87;68.05;99607.66;4987925;23;20057;-95
2023/08/25 18:17:16;;;;;;;86.32;31.58;;;;;;;15.97;68.14;99663.16;4970346;28;20061;-93
2023/08/25 18:20:26;;;;;;;79.00;30.20;;;;;;;15.65;67.35;99619.81;4981069;28;20047;-91
2023/08/25 18:22:52;;;;;;;89.47;30.15;;;;;;;15.76;68.34;99648.63;4968726;28;20042;-93
2023/08/25 18:25:28;;;;;;;91.93;29.55;;;;;;;15.90;69.11;99667.63;4957636;28;20043;-96
2023/08/25 18:28:25;;;;;;;83.50;28.98;;;;;;;15.35;69.02;99592.41;4965315;28;20062;-96
2023/08/25 18:31:35;;;;;;;88.60;32.17;;;;;;;15.67;68.83;99653.41;4996838;28;20082;-91
2023/08/25 18:34:04;;;;;;;94.00;36.47;;;;;;;15.33;68.95;99616.72;4939621;29;20563;-92
2023/08/25 18:36:32;;;;;;;108.03;41.78;;;;;;;15.72;69.50;99676.03;4972030;28;20058;-96
2023/08/25 18:39:20;;;;;;;137.20;52.40;;;;;;;15.59;69.14;99662.50;4958219;29;20551;-91
2023/08/25 18:42:03;;;;;;;185.70;77.32;;;;;;;15.17;68.61;99596.47;4936751;29;20046;-95
2023/08/25 18:44:37;;;;;;;222.75;94.28;;;;;;;15.47;68.55;99641.25;4953808;28;20038;-94
2023/08/25 18:47:03;;;;;;;144.57;65.72;;;;;;;15.27;69.13;99612.56;4955919;28;20050;-90
2023/08/25 18:49:33;;;;;;;97.82;39.35;;;;;;;15.64;69.42;99670.59;4991369;28;20043;-91
2023/08/25 18:52:12;;;;;;;90.97;34.20;;;;;;;15.59;70.02;99671.59;4950620;28;20030;-95
2023/08/25 18:54:52;;;;;;;77.53;34.13;;;;;;;15.21;69.50;99616.66;4948585;28;20043;-93
2023/08/25 18:57:25;;;;;;;78.63;34.03;;;;;;;14.98;70.09;99600.47;4919859;29;20052;-92
2023/08/25 18:59:56;;;;;;;86.68;34.95;;;;;;;15.23;69.47;99639.97;4915318;29;20055;-93
2023/08/25 19:02:28;;;;;;;113.65;44.28;;;;;;;14.85;70.17;99595.22;4899129;29;20468;-94
2023/08/25 19:04:55;;;;;;;91.93;38.95;;;;;;;14.83;70.19;99592.00;4927583;29;20043;-90
2023/08/25 19:07:24;;;;;;;122.85;74.15;;;;;;;15.27;70.71;99668.44;4965637;28;20470;-96
2023/08/25 19:10:05;;;;;;;109.50;63.10;;;;;;;14.67;71.34;99587.09;4938272;29;20024;-94
2023/08/25 19:13:14;;;;;;;88.40;45.42;;;;;;;15.18;71.04;99664.94;4939568;29;20058;-96
2023/08/25 19:16:11;;;;;;;80.47;34.10;;;;;;;14.86;71.04;99621.59;4899503;28;20080;-93
2023/08/25 19:19:06;;;;;;;78.65;42.10;;;;;;;14.84;71.65;99627.47;4956744;28;20582;-92
2023/08/25 19:21:57;;;;;;;101.97;50.22;;;;;;;14.85;71.50;99631.00;4958874;28;20049;-92
2023/08/25 19:24:29;;;;;;;92.43;50.70;;;;;;;14.80;72.14;99615.47;4956116;28;20149;-93
2023/08/25 19:27:26;;;;;;;83.32;48.38;;;;;;;14.62;72.03;99597.47;5009665;28;20046;-92
2023/08/25 19:30:04;;;;;;;76.95;34.20;;;;;;;14.71;70.24;99612.00;4974060;28;20035;-94
2023/08/25 19:33:52;;;;;;;84.05;28.33;;;;;;;14.98;70.16;99658.28;4926769;29;20040;-93
